Latest Weather Observations for Tunnack

IDT60801

Issued at 12:31 pm EDT Saturday 28 February 2015 (issued every 30 minutes, with the page automatically refreshed every 10 minutes)

About weather observations | Map of weather stations | Latest weather observations for TAS | Other Formats
Station Details ID: 094195 Name: TUNNACK FIRE STATION Lat: -42.45 Lon: 147.46 Height: 461.5 m
Data from the previous 72 hours. | See also: Recent months at Tunnack
Date/Time
EDT
Temp
°C
App
Temp
°C
Dew
Point
Rel
Hum
%
Delta-T
°C
Wind Press
QNH
hPa
Press
MSL
hPa
Rain
since 9 am
mm
Dir
 
Spd
km/h
Gust
km/h
Spd
kts
Gust
kts
28/12:30pm 12.2 8.8 11.3 94 0.5 NNW 20 30 11 16 1003.4 1002.4 1.6
28/12:00pm 12.4 8.4 10.6 89 1.0 NNW 22 33 12 18 1003.8 1002.8 0.4
28/11:41am 12.8 6.7 10.3 85 1.3 N 33 52 18 28 1004.1 1003.1 0.2
28/11:30am 13.4 6.4 10.0 80 1.8 N 37 50 20 27 1004.1 1003.1 0.0
28/11:00am 13.7 6.8 10.3 80 1.8 N 37 56 20 30 1004.4 1003.4 0.0
28/10:30am 14.2 8.9 10.0 76 2.2 N 28 56 15 30 1004.8 1003.8 0.0
28/10:17am 14.7 9.4 9.9 73 2.6 NNE 28 50 15 27 1004.9 1004.0 0.0
28/10:00am 13.8 10.1 10.2 79 1.9 NNE 20 32 11 17 1005.0 1004.1 0.0
28/09:30am 12.8 8.9 9.6 81 1.7 N 20 32 11 17 1005.6 1004.6 0.0
28/09:00am 12.6 9.1 10.3 86 1.2 N 19 28 10 15 1005.6 1004.6 0.0
28/08:30am 11.3 8.5 10.0 92 0.7 NNE 15 22 8 12 1005.6 1004.6 0.0
28/08:00am 10.7 7.8 9.8 94 0.5 NE 15 22 8 12 1005.8 1004.8 0.0
28/07:30am 10.1 7.5 9.5 96 0.3 NE 13 19 7 10 1006.4 1005.4 0.0
28/07:00am 10.0 8.1 9.1 94 0.5 ENE 9 15 5 8 1006.9 1006.0 0.0
28/06:30am 9.8 7.0 8.4 91 0.7 NE 13 20 7 11 1006.8 1005.9 0.0
28/06:00am 9.9 6.2 7.8 87 1.0 NNE 17 24 9 13 1007.0 1006.1 0.0
28/05:30am 9.8 7.5 7.4 85 1.2 NE 9 13 5 7 1007.2 1006.3 0.0
28/05:00am 9.8 7.4 7.2 84 1.3 NNE 9 13 5 7 1007.6 1006.7 0.0
28/04:30am 9.8 7.8 7.2 84 1.3 NE 7 9 4 5 1008.2 1007.2 0.0
28/04:00am 9.8 7.8 7.1 83 1.3 NE 7 9 4 5 1008.7 1007.8 0.0
28/03:30am 9.6 8.7 7.7 88 0.9 N 2 7 1 4 1009.0 1008.1 0.0
28/03:00am 9.6 9.0 7.5 87 1.0 CALM 0 0 0 0 1009.4 1008.5 0.0
28/02:30am 9.6 9.0 7.4 86 1.1 CALM 0 0 0 0 1009.6 1008.7 0.0
28/02:00am 9.3 7.6 7.4 88 0.9 S 6 7 3 4 1009.8 1008.9 0.0
28/01:30am 9.3 7.5 7.1 86 1.1 SSE 6 7 3 4 1010.2 1009.2 0.0
28/01:00am 9.7 7.7 7.3 85 1.2 SSW 7 9 4 5 1010.5 1009.5 0.0
28/12:30am 9.8 7.8 7.2 84 1.3 S 7 11 4 6 1010.7 1009.8 0.0
28/12:00am 10.0 8.1 7.4 84 1.3 S 7 11 4 6 1010.7 1009.8 0.0
 
Date/Time
EDT
Temp
°C
App
Temp
°C
Dew
Point
Rel
Hum
%
Delta-T
°C
Wind Press
QNH
hPa
Press
MSL
hPa
Rain
since 9 am
mm
Dir
 
Spd
km/h
Gust
km/h
Spd
kts
Gust
kts
27/11:30pm 10.0 8.1 7.6 85 1.2 S 7 11 4 6 1011.0 1010.1 0.0
27/11:00pm 9.5 7.2 7.6 88 0.9 SSW 9 11 5 6 1010.9 1010.0 0.0
27/10:30pm 10.1 7.8 7.5 84 1.3 S 9 13 5 7 1011.1 1010.2 0.0
27/10:00pm 10.6 7.7 8.0 84 1.3 S 13 19 7 10 1011.3 1010.4 0.0
27/09:30pm 10.8 8.0 8.4 85 1.2 S 13 19 7 10 1011.0 1010.1 0.0
27/09:00pm 11.0 8.6 8.8 86 1.1 S 11 19 6 10 1010.7 1009.8 0.0
27/08:30pm 11.2 7.8 9.1 87 1.1 S 17 20 9 11 1010.3 1009.3 0.0
27/08:00pm 11.8 9.6 9.4 85 1.2 S 11 19 6 10 1010.2 1009.2 0.0
27/07:30pm 12.1 10.0 9.7 85 1.3 S 11 19 6 10 1009.8 1008.9 0.0
27/07:00pm 12.3 8.6 10.0 86 1.2 SSW 20 28 11 15 1009.6 1008.7 0.0
27/06:30pm 14.8 11.2 9.8 72 2.7 S 19 26 10 14 1009.2 1008.3 0.0
27/06:00pm 15.7 12.8 10.9 73 2.6 S 17 26 9 14 1009.3 1008.4 0.0
27/05:30pm 16.0 12.9 10.3 69 3.1 S 17 26 9 14 1008.8 1007.9 0.0
27/05:00pm 16.1 14.1 10.0 67 3.3 SSE 11 19 6 10 1008.4 1007.4 0.0
27/04:30pm 16.3 14.3 10.2 67 3.3 S 11 17 6 9 1008.4 1007.4 0.0
27/04:00pm 16.1 13.0 10.4 69 3.1 SSW 17 24 9 13 1008.7 1007.8 0.0
27/03:30pm 15.6 12.1 10.2 70 2.9 S 19 24 10 13 1008.7 1007.8 0.0
27/03:00pm 15.8 12.1 10.1 69 3.1 SSW 20 30 11 16 1009.0 1008.1 0.0
27/02:30pm 16.4 13.4 10.5 68 3.2 S 17 24 9 13 1008.7 1007.8 0.0
27/02:00pm 16.9 16.1 11.0 68 3.3 S 6 11 3 6 1008.6 1007.6 0.0
27/01:30pm 15.8 14.2 10.3 70 3.0 SSW 9 15 5 8 1009.1 1008.2 0.0
27/01:00pm 15.0 13.0 10.2 73 2.6 SW 11 15 6 8 1009.5 1008.6 0.0
27/12:30pm 15.0 13.2 10.8 76 2.3 ENE 11 15 6 8 1009.2 1008.3 0.0
27/12:00pm 14.6 12.3 10.4 76 2.3 ENE 13 20 7 11 1009.6 1008.7 0.0
27/11:30am 14.1 12.0 9.7 75 2.3 ENE 11 19 6 10 1010.0 1009.1 0.0
27/11:00am 14.2 11.5 10.4 78 2.0 NE 15 20 8 11 1010.5 1009.5 0.0
27/10:30am 14.6 12.6 10.2 75 2.4 NE 11 15 6 8 1010.6 1009.7 0.0
27/10:00am 13.1 11.0 9.7 80 1.8 E 11 17 6 9 1011.1 1010.2 0.0
27/09:30am 12.0 9.2 8.7 80 1.7 NE 13 22 7 12 1011.2 1010.3 0.0
27/09:00am 12.4 9.7 9.1 80 1.7 NE 13 19 7 10 1010.5 1009.5 0.0
27/08:30am 11.6 8.8 8.6 82 1.5 ENE 13 20 7 11 1010.6 1009.7 0.0
27/08:00am 10.5 8.0 8.3 86 1.1 E 11 15 6 8 1011.0 1010.1 0.0
27/07:30am 10.1 7.6 8.4 89 0.9 E 11 19 6 10 1011.0 1010.1 0.0
27/07:00am 9.5 7.7 7.3 86 1.1 NNE 6 9 3 5 1010.7 1009.8 0.0
27/06:30am 9.3 7.4 6.7 84 1.2 ENE 6 9 3 5 1010.4 1009.4 0.0
27/06:00am 9.6 7.7 6.9 83 1.3 NNE 6 9 3 5 1010.3 1009.3 0.0
27/05:30am 9.7 7.8 6.8 82 1.4 N 6 9 3 5 1010.3 1009.3 0.0
27/05:00am 9.9 7.8 6.8 81 1.5 NE 7 13 4 7 1010.2 1009.2 0.0
27/04:30am 9.8 7.3 6.7 81 1.5 NE 9 13 5 7 1010.5 1009.5 0.0
27/04:00am 9.8 6.9 6.5 80 1.6 ESE 11 15 6 8 1010.6 1009.7 0.0
27/03:30am 9.8 7.6 6.2 78 1.7 SE 7 11 4 6 1010.9 1010.0 0.0
27/03:00am 9.7 8.8 5.9 77 1.8 CALM 0 6 0 3 1011.2 1010.3 0.0
27/02:30am 9.7 7.5 6.2 79 1.7 ESE 7 11 4 6 1011.3 1010.4 0.0
27/02:00am 9.7 7.4 5.9 77 1.8 SE 7 11 4 6 1011.7 1010.8 0.0
27/01:30am 9.7 7.4 5.9 77 1.8 SE 7 13 4 7 1011.9 1011.0 0.0
27/01:00am 9.9 7.6 5.9 76 1.9 SE 7 11 4 6 1012.1 1011.2 0.0
27/12:30am 9.8 7.1 5.6 75 2.0 SE 9 15 5 8 1011.9 1011.0 0.0
27/12:00am 10.0 6.5 5.6 74 2.1 SSE 13 20 7 11 1012.1 1011.2 0.0
 
Date/Time
EDT
Temp
°C
App
Temp
°C
Dew
Point
Rel
Hum
%
Delta-T
°C
Wind Press
QNH
hPa
Press
MSL
hPa
Rain
since 9 am
mm
Dir
 
Spd
km/h
Gust
km/h
Spd
kts
Gust
kts
26/11:30pm 10.1 6.7 5.7 74 2.1 SSE 13 17 7 9 1012.5 1011.6 0.0
26/11:00pm 10.2 7.5 5.8 74 2.1 SSE 9 15 5 8 1012.6 1011.7 0.0
26/10:30pm 10.2 7.5 5.8 74 2.1 SSE 9 13 5 7 1012.6 1011.7 0.0
26/10:00pm 10.3 7.3 6.1 75 2.0 SSE 11 17 6 9 1012.2 1011.3 0.0
26/09:30pm 10.2 6.9 6.2 76 1.9 SSE 13 17 7 9 1011.9 1011.0 0.0
26/09:00pm 10.3 7.0 6.6 78 1.8 SSE 13 17 7 9 1011.6 1010.7 0.0
26/08:30pm 10.3 6.7 6.8 79 1.7 SE 15 22 8 12 1011.1 1010.2 0.0
26/08:00pm 10.5 7.0 7.2 80 1.6 SE 15 20 8 11 1010.6 1009.7 0.0
26/07:30pm 10.8 7.4 7.7 81 1.5 SE 15 26 8 14 1010.2 1009.2 0.0
26/07:00pm 10.9 7.3 8.3 84 1.3 SSE 17 24 9 13 1009.7 1008.8 0.0
26/06:30pm 11.2 8.2 9.1 87 1.1 SSE 15 20 8 11 1009.5 1008.6 0.0
26/06:00pm 11.2 7.5 10.1 93 0.6 S 20 28 11 15 1009.3 1008.4 0.0
26/05:30pm 11.6 8.6 10.5 93 0.6 S 17 26 9 14 1009.0 1008.1 0.0
26/05:00pm 11.6 8.2 11.4 99 0.1 S 20 32 11 17 1008.8 1007.9 0.0
26/04:30pm 12.6 9.6 12.0 96 0.3 SSW 19 28 10 15 1008.4 1007.4 0.0
26/04:00pm 14.8 10.9 12.1 84 1.5 S 24 32 13 17 1007.9 1006.9 0.0
26/03:30pm 15.3 11.0 12.1 81 1.8 S 26 35 14 19 1007.6 1006.7 0.0
26/03:00pm 19.8 16.5 10.8 56 5.0 SW 19 26 10 14 1007.2 1006.3 0.0
26/02:30pm 20.2 17.2 10.6 54 5.3 W 17 26 9 14 1007.2 1006.3 0.0
26/02:00pm 20.0 16.3 10.1 53 5.5 WSW 20 33 11 18 1007.0 1006.1 0.0
26/01:30pm 19.7 16.7 10.7 56 5.0 W 17 26 9 14 1007.1 1006.2 0.0
26/01:00pm 19.9 16.0 10.9 56 5.0 W 22 35 12 19 1007.3 1006.4 0.0
26/12:30pm 19.8 17.9 11.8 60 4.5 WNW 13 35 7 19 1007.5 1006.6 0.0
26/12:00pm 16.7 15.8 12.5 76 2.4 NNW 9 13 5 7 1007.7 1006.8 0.0
26/11:30am 16.1 14.7 13.4 84 1.5 N 13 17 7 9 1008.1 1007.1 0.0
26/11:00am 14.8 12.2 13.3 91 0.9 N 19 26 10 14 1008.2 1007.2 0.0
26/10:30am 14.2 10.5 12.6 90 0.9 N 24 30 13 16 1008.0 1007.0 0.0
26/10:00am 14.2 11.1 13.4 95 0.5 N 22 32 12 17 1007.9 1006.9 0.0
26/09:30am 13.0 10.6 12.7 98 0.2 N 17 24 9 13 1008.0 1007.0 0.0
26/09:00am 13.4 11.6 13.2 99 0.1 N 15 20 8 11 1008.0 1007.0 0.0
26/08:30am 11.5 8.7 11.5 100 0.0 N 17 26 9 14 1008.0 1007.0 0.0
26/08:00am 11.2 9.1 11.0 99 0.1 N 13 17 7 9 1008.3 1007.3 0.0
26/07:30am 11.0 8.8 10.8 99 0.1 N 13 17 7 9 1008.2 1007.2 0.0
26/07:00am 10.8 8.8 10.2 96 0.3 NNE 11 17 6 9 1008.4 1007.4 0.0
26/06:30am 10.9 9.5 9.7 92 0.6 N 7 15 4 8 1008.3 1007.3 0.0
26/06:00am 11.0 8.6 8.8 86 1.1 NNE 11 17 6 9 1008.1 1007.1 0.0
26/05:30am 10.9 9.7 8.0 82 1.4 NNE 4 9 2 5 1008.0 1007.0 0.0
26/05:00am 10.4 7.1 8.2 86 1.1 NNE 15 20 8 11 1008.4 1007.4 0.0
26/04:30am 9.2 7.4 7.2 87 1.0 ENE 6 9 3 5 1009.2 1008.3 0.0
26/04:00am 9.2 7.1 6.5 83 1.3 NNE 7 11 4 6 1009.7 1008.8 0.0
26/03:30am 10.1 6.6 7.0 81 1.5 N 15 19 8 10 1009.8 1008.9 0.0
26/03:00am 10.5 6.5 6.8 78 1.8 N 17 20 9 11 1010.3 1009.3 0.0
26/02:30am 10.0 7.5 6.5 79 1.7 N 9 15 5 8 1010.2 1009.2 0.0
26/02:00am 9.4 7.7 5.8 78 1.7 NW 4 7 2 4 1010.9 1010.0 0.0
26/01:30am 10.6 7.7 6.4 75 2.0 NNW 11 19 6 10 1011.2 1010.3 0.0
26/01:00am 11.4 7.8 6.9 74 2.2 NNW 15 20 8 11 1011.7 1010.8 0.0
26/12:30am 11.0 8.9 6.7 75 2.1 NNW 7 19 4 10 1011.9 1011.0 0.0
26/12:00am 11.9 8.4 7.2 73 2.3 NNW 15 24 8 13 1012.2 1011.3 0.0
 
Date/Time
EDT
Temp
°C
App
Temp
°C
Dew
Point
Rel
Hum
%
Delta-T
°C
Wind Press
QNH
hPa
Press
MSL
hPa
Rain
since 9 am
mm
Dir
 
Spd
km/h
Gust
km/h
Spd
kts
Gust
kts
25/11:30pm 11.9 7.5 7.2 73 2.3 NNW 20 35 11 19 1012.5 1011.6 0.0
25/11:00pm 12.2 7.4 7.5 73 2.3 NNW 22 33 12 18 1013.0 1012.1 0.0
25/10:30pm 12.4 8.0 7.3 71 2.5 N 20 30 11 16 1013.5 1012.6 0.0
25/10:00pm 12.5 9.4 7.4 71 2.5 NNE 13 20 7 11 1013.9 1013.0 0.0
25/09:30pm 12.7 9.3 7.6 71 2.6 NNE 15 20 8 11 1014.0 1013.1 0.0
25/09:00pm 13.1 10.4 7.5 69 2.8 NNE 11 19 6 10 1014.1 1013.2 0.0
25/08:30pm 13.7 10.3 7.7 67 3.0 NNE 15 22 8 12 1013.9 1013.0 0.0
25/08:00pm 14.7 10.0 7.7 63 3.6 NNE 22 33 12 18 1013.9 1013.0 0.0
25/07:30pm 15.6 10.1 7.6 59 4.1 N 26 37 14 20 1014.2 1013.3 0.0
25/07:00pm 16.6 10.5 8.1 57 4.4 N 30 41 16 22 1014.5 1013.7 0.0
25/06:30pm 16.7 11.1 7.1 53 4.9 N 26 39 14 21 1014.8 1013.9 0.0
25/06:00pm 17.3 11.9 6.5 49 5.5 N 24 39 13 21 1014.7 1013.8 0.0
25/05:30pm 18.3 12.9 6.5 46 6.0 N 24 39 13 21 1015.0 1014.1 0.0
25/05:00pm 18.6 12.8 6.4 45 6.2 N 26 35 14 19 1015.5 1014.6 0.0
25/04:37pm 18.5 14.2 5.4 42 6.5 NNW 17 33 9 18 1015.8 1014.9 0.0
25/04:30pm 18.9 16.7 7.7 48 5.9 NNE 9 19 5 10 1015.9 1015.0 0.0
25/04:00pm 18.6 14.5 7.7 49 5.7 ENE 19 28 10 15 1016.2 1015.4 0.0
25/03:30pm 19.2 15.4 7.6 47 6.1 NE 17 24 9 13 1016.8 1016.0 0.0
25/03:00pm 20.0 16.2 5.6 39 7.3 N 15 24 8 13 1017.6 1016.7 0.0
25/02:30pm 20.0 17.0 6.0 40 7.1 NNW 11 20 6 11 1018.2 1017.4 0.0
25/02:00pm 17.9 14.9 5.8 45 6.0 NNE 11 19 6 10 1018.6 1017.8 0.0
25/01:30pm 18.5 14.9 6.7 46 6.0 N 15 24 8 13 1019.0 1018.2 0.0
25/01:00pm 17.3 13.3 6.8 50 5.3 NNE 17 26 9 14 1019.5 1018.6 0.0

Other Formats:

Comma delimited format used in spreadsheet applications
http://www.bom.gov.au/fwo/IDT60801/IDT60801.94960.axf

JavaScript Object Notation format (JSON) in row-major order
http://www.bom.gov.au/fwo/IDT60801/IDT60801.94960.json